^^
Meteo Knjazevac Station Historical Data
Daily Summary for September 27, 2022 Units:  Both    English   Metric
Daily Weekly Monthly Yearly Custom
  High: Low: Average:
Temperature: 59.7 °F /  15.4 °C 59 °F /  15 °C 59.2 °F /  15.1 °C
Dew Point: 59.4 °F /  15.2 °C 58.7 °F /  14.8 °C 58.9 °F /  14.9 °C
Humidity: 99% 99% 99%
Wind Speed: 9.7mph /  15.6km/h - 6.5mph /  10.5km/h
Wind Gust: 10mph /  16.1km/h - -
Wind- - SW
Pressure: 29.84 in /  1010.4 hPa 29.80 in /  1009 hPa -
Precipitation: 0.16 in /  4.06 mm    
Historical Graphs
 
 
Tabular Data for September 27, 2022
Time Temperature Dew Point Pressure Wind Wind Speed Wind Gust Humidity Rainfall Rate (Hourly) solar Conditions
00:04 59.2 °F /  15.1 °C 58.9 °F /  14.9 °C 29.84in /  1010.4hPa SSW 7.1mph /  11.4km/h 7mph /  11.3km/h 99% 0.18in /  4.57mm 0 W/m2
00:09 59.2 °F /  15.1 °C 58.9 °F /  14.9 °C 29.84in /  1010.4hPa SSW 7mph /  11.3km/h 8mph /  12.9km/h 99% 0.16in /  4.06mm 0 W/m2
00:14 59.2 °F /  15.1 °C 58.9 °F /  14.9 °C 29.84in /  1010.4hPa SSW 9.5mph /  15.3km/h 8.7mph /  14km/h 99% 0.13in /  3.3mm 0 W/m2
00:19 59.2 °F /  15.1 °C 58.9 °F /  14.9 °C 29.84in /  1010.4hPa SW 7.4mph /  11.9km/h 10mph /  16.1km/h 99% 0.14in /  3.56mm 0 W/m2
00:24 59.2 °F /  15.1 °C 58.9 °F /  14.9 °C 29.84in /  1010.4hPa SW 7.6mph /  12.2km/h 9mph /  14.5km/h 99% 0.15in /  3.81mm 0 W/m2
00:29 59.2 °F /  15.1 °C 58.9 °F /  14.9 °C 29.84in /  1010.4hPa SSW 7.5mph /  12.1km/h 8mph /  12.9km/h 99% 0.15in /  3.81mm 0 W/m2
00:34 59.2 °F /  15.1 °C 58.9 °F /  14.9 °C 29.84in /  1010.4hPa SW 6.8mph /  10.9km/h 8mph /  12.9km/h 99% 0.15in /  3.81mm 0 W/m2
00:39 59.2 °F /  15.1 °C 58.9 °F /  14.9 °C 29.84in /  1010.4hPa SW 6.9mph /  11.1km/h 7mph /  11.3km/h 99% 0.15in /  3.81mm 0 W/m2
00:44 59.1 °F /  15.1 °C 58.8 °F /  14.9 °C 29.84in /  1010.4hPa SW 6.8mph /  10.9km/h 7mph /  11.3km/h 99% 0.14in /  3.56mm 0 W/m2
00:49 59.1 °F /  15.1 °C 58.8 °F /  14.9 °C 29.83in /  1010hPa SSW 7mph /  11.3km/h 7mph /  11.3km/h 99% 0.13in /  3.3mm 0 W/m2
00:54 59.2 °F /  15.1 °C 58.9 °F /  14.9 °C 29.83in /  1010hPa SSW 7.5mph /  12.1km/h 8mph /  12.9km/h 99% 0.12in /  3.05mm 0 W/m2
00:59 59.1 °F /  15.1 °C 58.8 °F /  14.9 °C 29.83in /  1010hPa SSW 7mph /  11.3km/h 8mph /  12.9km/h 99% 0.12in /  3.05mm 0 W/m2
01:04 59.1 °F /  15.1 °C 58.8 °F /  14.9 °C 29.83in /  1010hPa SW 6.9mph /  11.1km/h 7mph /  11.3km/h 99% 0.12in /  3.05mm 0 W/m2
01:09 59.1 °F /  15.1 °C 58.8 °F /  14.9 °C 29.83in /  1010hPa SW 6.9mph /  11.1km/h 7mph /  11.3km/h 99% 0.12in /  3.05mm 0 W/m2
01:14 59 °F /  15 °C 58.7 °F /  14.8 °C 29.83in /  1010hPa SW 6.8mph /  10.9km/h 7mph /  11.3km/h 99% 0.11in /  2.79mm 0 W/m2
01:19 59 °F /  15 °C 58.7 °F /  14.8 °C 29.83in /  1010hPa SW 6.8mph /  10.9km/h 7mph /  11.3km/h 99% 0.10in /  2.54mm 0 W/m2
01:24 59 °F /  15 °C 58.7 °F /  14.8 °C 29.82in /  1009.7hPa SW 6.7mph /  10.8km/h 7mph /  11.3km/h 99% 0.08in /  2.03mm 0 W/m2
01:29 59 °F /  15 °C 58.7 °F /  14.8 °C 29.82in /  1009.7hPa SW 7.3mph /  11.7km/h 7mph /  11.3km/h 99% 0.07in /  1.78mm 0 W/m2
01:34 59.1 °F /  15.1 °C 58.8 °F /  14.9 °C 29.82in /  1009.7hPa SW 6.9mph /  11.1km/h 8mph /  12.9km/h 99% 0.06in /  1.52mm 0 W/m2
01:39 59.2 °F /  15.1 °C 58.9 °F /  14.9 °C 29.82in /  1009.7hPa SW 5.9mph /  9.5km/h 7mph /  11.3km/h 99% 0.06in /  1.52mm 0 W/m2
01:44 59.2 °F /  15.1 °C 58.9 °F /  14.9 °C 29.82in /  1009.7hPa SSW 5.7mph /  9.2km/h 6mph /  9.7km/h 99% 0.04in /  1.02mm 0 W/m2
01:49 59.2 °F /  15.1 °C 58.9 °F /  14.9 °C 29.82in /  1009.7hPa SSW 5.4mph /  8.7km/h 6mph /  9.7km/h 99% 0.04in /  1.02mm 0 W/m2
01:54 59.2 °F /  15.1 °C 58.9 °F /  14.9 °C 29.82in /  1009.7hPa SE 5.8mph /  9.3km/h 7mph /  11.3km/h 99% 0.03in /  0.76mm 0 W/m2
01:59 59.2 °F /  15.1 °C 58.9 °F /  14.9 °C 29.82in /  1009.7hPa NNE 3.7mph /  6km/h 6mph /  9.7km/h 99% 0.03in /  0.76mm 0 W/m2
02:04 59.2 °F /  15.1 °C 58.9 °F /  14.9 °C 29.82in /  1009.7hPa NNW 4.4mph /  7.1km/h 3mph /  4.8km/h 99% 0.02in /  0.51mm 0 W/m2
02:09 59.2 °F /  15.1 °C 58.9 °F /  14.9 °C 29.82in /  1009.7hPa NW 3.4mph /  5.5km/h 6mph /  9.7km/h 99% 0.02in /  0.51mm 0 W/m2
02:14 59.2 °F /  15.1 °C 58.9 °F /  14.9 °C 29.81in /  1009.4hPa NNW 4.5mph /  7.2km/h 3.1mph /  5km/h 99% 0.02in /  0.51mm 0 W/m2
02:19 59.2 °F /  15.1 °C 58.9 °F /  14.9 °C 29.81in /  1009.4hPa NW 5.4mph /  8.7km/h 6mph /  9.7km/h 99% 0.02in /  0.51mm 0 W/m2
02:24 59.2 °F /  15.1 °C 58.9 °F /  14.9 °C 29.81in /  1009.4hPa WNW 7mph /  11.3km/h 7mph /  11.3km/h 99% 0.02in /  0.51mm 0 W/m2
02:29 59.3 °F /  15.2 °C 59 °F /  15 °C 29.81in /  1009.4hPa WNW 7.5mph /  12.1km/h 8mph /  12.9km/h 99% 0.02in /  0.51mm 0 W/m2
02:34 59.4 °F /  15.2 °C 59.1 °F /  15.1 °C 29.81in /  1009.4hPa WNW 9.7mph /  15.6km/h 9mph /  14.5km/h 99% 0.02in /  0.51mm 0 W/m2
02:39 59.5 °F /  15.3 °C 59.2 °F /  15.1 °C 29.81in /  1009.4hPa NW 6.3mph /  10.1km/h 10mph /  16.1km/h 99% 0.02in /  0.51mm 0 W/m2
02:44 59.5 °F /  15.3 °C 59.3 °F /  15.2 °C 29.81in /  1009.4hPa NNE 4.4mph /  7.1km/h 7mph /  11.3km/h 99% 0.02in /  0.51mm 0 W/m2
02:49 59.6 °F /  15.3 °C 59.4 °F /  15.2 °C 29.81in /  1009.4hPa ENE 4.9mph /  7.9km/h 6mph /  9.7km/h 99% 0.02in /  0.51mm 0 W/m2
02:54 59.7 °F /  15.4 °C 59.4 °F /  15.2 °C 29.80in /  1009hPa ENE 5.8mph /  9.3km/h 7mph /  11.3km/h 99% 0.02in /  0.51mm 0 W/m2
Knjazevac, Serbia
Compliments of Weather Underground - 2 mb